createdAt,value
2022-11-04T00:01:30.078Z,1.40
2022-11-04T00:03:58.353Z,1.42
2022-11-04T00:06:26.814Z,0.98
2022-11-04T00:08:57.463Z,0.80
2022-11-04T00:11:43.864Z,0.85
2022-11-04T00:14:12.929Z,1.10
2022-11-04T00:17:00.839Z,1.05
2022-11-04T00:19:50.175Z,1.17
2022-11-04T00:22:44.894Z,1.10
2022-11-04T00:25:31.220Z,1.15
2022-11-04T00:28:29.875Z,1.10
2022-11-04T00:31:19.127Z,1.05
2022-11-04T00:33:48.686Z,1.52
2022-11-04T00:36:17.059Z,1.63
2022-11-04T00:38:45.397Z,1.73
2022-11-04T00:41:27.293Z,1.52
2022-11-04T00:43:56.802Z,1.60
2022-11-04T00:46:25.067Z,1.75
2022-11-04T00:48:54.656Z,1.50
2022-11-04T00:51:22.719Z,1.58
2022-11-04T00:53:51.314Z,1.48
2022-11-04T00:56:19.311Z,1.88
2022-11-04T00:58:47.472Z,1.67
2022-11-04T01:01:18.416Z,1.75
2022-11-04T01:03:47.817Z,1.70
2022-11-04T01:06:17.671Z,1.88
2022-11-04T01:08:45.747Z,2.35
2022-11-04T01:11:13.960Z,1.75
2022-11-04T01:13:42.073Z,1.77
2022-11-04T01:16:12.803Z,1.83
2022-11-04T01:18:41.465Z,2.10
2022-11-04T01:21:11.635Z,1.20
2022-11-04T01:23:42.286Z,1.27
2022-11-04T01:26:12.626Z,1.38
2022-11-04T01:28:40.808Z,0.82
2022-11-04T01:31:09.752Z,0.95
2022-11-04T01:33:37.878Z,1.17
2022-11-04T01:36:07.992Z,1.10
2022-11-04T01:38:36.598Z,1.17
2022-11-04T01:41:06.794Z,1.13
2022-11-04T01:43:45.545Z,0.90
2022-11-04T01:46:17.803Z,0.77
2022-11-04T01:48:46.300Z,0.93
2022-11-04T01:51:15.581Z,0.90
2022-11-04T01:53:45.000Z,1.27
2022-11-04T01:56:16.775Z,1.00
2022-11-04T01:58:48.814Z,1.30
2022-11-04T02:01:17.505Z,0.88
2022-11-04T02:03:51.819Z,0.93
2022-11-04T02:06:21.998Z,1.35
2022-11-04T02:08:50.376Z,1.00
2022-11-04T02:11:33.675Z,1.00
2022-11-04T02:14:03.150Z,0.80
2022-11-04T02:16:41.348Z,1.10
2022-11-04T02:19:29.667Z,2.65
2022-11-04T02:22:44.343Z,1.60
2022-11-04T02:25:39.875Z,1.10
2022-11-04T02:28:45.958Z,1.40
2022-11-04T02:31:23.657Z,1.15
2022-11-04T02:33:57.815Z,1.85
2022-11-04T02:36:41.034Z,1.40
2022-11-04T02:39:20.619Z,1.23
2022-11-04T02:41:54.542Z,1.20
2022-11-04T02:44:31.108Z,1.52
2022-11-04T02:47:04.570Z,1.20
2022-11-04T02:49:39.514Z,1.52
2022-11-04T02:52:10.757Z,1.60
2022-11-04T02:54:43.941Z,1.48
2022-11-04T02:57:17.849Z,1.67
2022-11-04T02:59:50.472Z,1.25
2022-11-04T03:02:27.356Z,1.20
2022-11-04T03:04:59.039Z,1.25
2022-11-04T03:07:30.204Z,1.20
2022-11-04T03:10:03.715Z,1.10
2022-11-04T03:12:38.413Z,1.70
2022-11-04T03:15:11.570Z,1.30
2022-11-04T03:17:45.899Z,1.10
2022-11-04T03:20:19.723Z,1.05
2022-11-04T03:22:47.886Z,1.20
2022-11-04T03:25:16.559Z,1.10
2022-11-04T03:27:51.544Z,1.48
2022-11-04T03:30:21.801Z,1.23
2022-11-04T03:33:00.906Z,0.75
2022-11-04T03:35:30.014Z,0.75
2022-11-04T03:37:58.981Z,0.70
2022-11-04T03:40:27.661Z,0.65
2022-11-04T03:42:59.296Z,0.90
2022-11-04T03:45:27.886Z,0.70
2022-11-04T03:47:57.732Z,0.70
2022-11-04T03:50:29.419Z,1.20
2022-11-04T03:52:59.031Z,0.80
2022-11-04T03:55:38.784Z,0.60
2022-11-04T03:58:16.791Z,0.95
2022-11-04T04:00:52.868Z,0.80
2022-11-04T04:03:28.237Z,1.42
2022-11-04T04:06:00.460Z,0.80
2022-11-04T04:08:36.955Z,1.13
2022-11-04T04:11:10.704Z,1.38
2022-11-04T04:13:44.971Z,1.08
2022-11-04T04:16:19.333Z,1.17
2022-11-04T04:18:58.489Z,0.80
2022-11-04T04:21:30.897Z,1.10
2022-11-04T04:24:21.782Z,0.80
2022-11-04T04:27:08.771Z,1.00
2022-11-04T04:29:38.723Z,1.02
2022-11-04T04:32:07.831Z,1.20
2022-11-04T04:34:38.356Z,1.33
2022-11-04T04:37:10.024Z,1.10
2022-11-04T04:40:00.187Z,1.00
2022-11-04T04:42:51.307Z,0.80
2022-11-04T04:45:24.037Z,0.90
2022-11-04T04:47:52.976Z,0.90
2022-11-04T04:50:23.274Z,1.15
2022-11-04T04:52:54.215Z,0.90
2022-11-04T04:55:22.437Z,0.80
2022-11-04T04:57:51.090Z,1.17
2022-11-04T05:00:21.585Z,1.10
2022-11-04T05:02:50.171Z,1.10
2022-11-04T05:05:19.215Z,1.00
2022-11-04T05:07:48.586Z,0.88
2022-11-04T05:10:17.911Z,1.15
2022-11-04T05:13:03.956Z,1.05
2022-11-04T05:15:32.721Z,1.00
2022-11-04T05:18:02.098Z,1.23
2022-11-04T05:20:34.309Z,1.50
2022-11-04T05:23:03.953Z,1.70
2022-11-04T05:25:31.970Z,1.63
2022-11-04T05:28:02.042Z,1.15
2022-11-04T05:30:30.413Z,1.50
2022-11-04T05:33:01.795Z,1.25
2022-11-04T05:35:33.431Z,1.20
2022-11-04T05:38:03.223Z,1.30
2022-11-04T05:40:31.215Z,1.10
2022-11-04T05:43:00.015Z,1.80
2022-11-04T05:45:28.530Z,1.30
2022-11-04T05:48:00.707Z,1.55
2022-11-04T05:50:29.613Z,1.42
2022-11-04T05:52:58.963Z,1.80
2022-11-04T05:55:28.903Z,1.23
2022-11-04T05:57:57.847Z,1.23
2022-11-04T06:00:26.625Z,1.25
2022-11-04T06:02:57.198Z,1.98
2022-11-04T06:05:25.742Z,1.33
2022-11-04T06:07:53.895Z,1.40
2022-11-04T06:10:22.032Z,1.65
2022-11-04T06:12:51.787Z,1.40
2022-11-04T06:15:19.808Z,1.83
2022-11-04T06:17:47.952Z,1.42
2022-11-04T06:20:16.413Z,1.65
2022-11-04T06:22:44.427Z,1.50
2022-11-04T06:25:13.007Z,1.10
2022-11-04T06:27:41.267Z,1.30
2022-11-04T06:30:12.818Z,1.30
2022-11-04T06:32:40.866Z,1.70
2022-11-04T06:35:09.859Z,1.50
2022-11-04T06:37:38.818Z,1.80
2022-11-04T06:40:08.267Z,2.03
2022-11-04T06:42:36.396Z,1.40
2022-11-04T06:45:04.863Z,1.75
2022-11-04T06:47:34.204Z,1.70
2022-11-04T06:50:02.851Z,1.73
2022-11-04T06:52:30.882Z,1.67
2022-11-04T06:54:58.862Z,2.00
2022-11-04T06:57:26.841Z,1.90
2022-11-04T06:59:55.029Z,1.80
2022-11-04T07:02:23.168Z,1.98
2022-11-04T07:04:52.880Z,2.10
2022-11-04T07:07:20.944Z,2.53
2022-11-04T07:09:48.905Z,3.08
2022-11-04T07:12:16.908Z,3.13
2022-11-04T07:14:44.922Z,2.83
2022-11-04T07:17:13.397Z,2.88
2022-11-04T07:19:41.416Z,3.10
2022-11-04T07:22:10.798Z,3.25
2022-11-04T07:24:38.808Z,3.30
2022-11-04T07:27:07.684Z,3.78
2022-11-04T07:29:35.702Z,4.88
2022-11-04T07:32:03.893Z,14.38
2022-11-04T07:34:31.924Z,14.18
2022-11-04T07:36:59.976Z,12.27
2022-11-04T07:39:29.391Z,12.95
2022-11-04T07:41:59.611Z,9.13
2022-11-04T07:44:27.996Z,11.32
2022-11-04T07:46:56.359Z,10.85
2022-11-04T07:49:25.301Z,10.35
2022-11-04T07:51:53.360Z,9.85
2022-11-04T07:54:21.347Z,9.25
2022-11-04T07:56:50.680Z,9.27
2022-11-04T07:59:18.702Z,9.23
2022-11-04T08:01:46.893Z,5.15
2022-11-04T08:04:14.910Z,5.55
2022-11-04T08:06:42.906Z,4.65
2022-11-04T08:09:10.974Z,6.25
2022-11-04T08:11:39.138Z,5.97
2022-11-04T08:14:09.760Z,6.00
2022-11-04T08:16:37.940Z,5.57
2022-11-04T08:19:05.979Z,3.80
2022-11-04T08:21:35.243Z,4.25
2022-11-04T08:24:05.191Z,2.33
2022-11-04T08:26:33.202Z,3.10
2022-11-04T08:29:02.403Z,3.25
2022-11-04T08:31:33.612Z,3.65
2022-11-04T08:34:02.031Z,4.05
2022-11-04T08:36:32.806Z,2.95
2022-11-04T08:39:05.823Z,3.35
2022-11-04T08:41:38.855Z,2.65
2022-11-04T08:44:06.967Z,3.53
2022-11-04T08:46:38.361Z,2.45
2022-11-04T08:49:09.901Z,2.38
2022-11-04T08:51:42.052Z,3.17
2022-11-04T08:54:10.282Z,2.10
2022-11-04T08:56:39.920Z,2.20
2022-11-04T08:59:08.483Z,2.15
2022-11-04T09:01:38.648Z,2.28
2022-11-04T09:04:07.884Z,2.13
2022-11-04T09:06:39.618Z,2.30
2022-11-04T09:09:10.522Z,2.40
2022-11-04T09:11:41.227Z,2.70
2022-11-04T09:14:10.187Z,1.90
2022-11-04T09:16:40.772Z,1.27
2022-11-04T09:19:08.816Z,1.85
2022-11-04T09:21:37.219Z,2.28
2022-11-04T09:24:06.007Z,1.73
2022-11-04T09:26:34.051Z,1.30
2022-11-04T09:29:02.459Z,1.20
2022-11-04T09:31:31.832Z,1.25
2022-11-04T09:34:01.267Z,1.85
2022-11-04T09:36:29.788Z,1.35
2022-11-04T09:38:57.994Z,1.48
2022-11-04T09:41:59.925Z,1.02
2022-11-04T09:44:43.550Z,1.10
2022-11-04T09:47:23.577Z,1.20
2022-11-04T09:49:57.529Z,0.98
2022-11-04T09:52:28.900Z,1.38
2022-11-04T09:55:03.022Z,2.95
2022-11-04T09:57:32.984Z,2.08
2022-11-04T10:00:01.583Z,1.50
2022-11-04T10:02:44.963Z,1.20
2022-11-04T10:05:32.026Z,1.35
2022-11-04T10:08:36.653Z,1.52
2022-11-04T10:11:11.629Z,1.17
2022-11-04T10:13:51.770Z,1.20
2022-11-04T10:16:30.384Z,1.52
2022-11-04T10:19:15.018Z,1.17
2022-11-04T10:21:50.318Z,1.45
2022-11-04T10:24:24.984Z,1.58
2022-11-04T10:27:00.354Z,1.10
2022-11-04T10:29:34.873Z,1.30
2022-11-04T10:32:07.223Z,1.13
2022-11-04T10:34:40.658Z,0.93
2022-11-04T10:37:12.337Z,1.83
2022-11-04T10:39:45.707Z,1.40
2022-11-04T10:42:15.424Z,1.65
2022-11-04T10:44:44.315Z,1.33
2022-11-04T10:47:22.775Z,1.20
2022-11-04T10:50:28.437Z,1.42
2022-11-04T10:53:11.200Z,1.02
2022-11-04T10:55:45.924Z,1.45
2022-11-04T10:58:19.270Z,0.93
2022-11-04T11:00:47.402Z,1.20
2022-11-04T11:03:33.041Z,0.88
2022-11-04T11:06:20.587Z,0.90
2022-11-04T11:08:50.304Z,1.05
2022-11-04T11:11:35.346Z,1.10
2022-11-04T11:14:03.383Z,0.80
2022-11-04T11:16:31.828Z,0.90
2022-11-04T11:19:18.953Z,0.80
2022-11-04T11:21:51.814Z,0.90
2022-11-04T11:24:23.658Z,1.30
2022-11-04T11:26:53.778Z,0.85
2022-11-04T11:29:26.236Z,1.15
2022-11-04T11:31:57.220Z,0.63
2022-11-04T11:34:29.632Z,0.85
2022-11-04T11:37:03.015Z,1.65
2022-11-04T11:39:34.305Z,2.05
2022-11-04T11:42:06.230Z,1.05
2022-11-04T11:44:44.021Z,1.52
2022-11-04T11:47:21.333Z,0.68
2022-11-04T11:50:06.603Z,0.95
2022-11-04T11:52:36.928Z,1.10
2022-11-04T11:55:11.995Z,1.10
2022-11-04T12:00:45.629Z,1.00
2022-11-04T12:03:21.844Z,1.73
2022-11-04T12:06:18.072Z,1.30
2022-11-04T12:12:02.891Z,0.93
2022-11-04T12:14:47.732Z,1.00
2022-11-04T12:17:26.343Z,1.38
2022-11-04T12:20:11.700Z,1.00
2022-11-04T12:22:49.459Z,0.73
2022-11-04T12:25:23.956Z,1.45
2022-11-04T12:28:04.635Z,0.90
2022-11-04T12:30:38.808Z,1.00
2022-11-04T12:33:23.072Z,0.70
2022-11-04T12:36:00.633Z,1.30
2022-11-04T12:38:59.464Z,0.80
2022-11-04T12:41:59.242Z,0.90
2022-11-04T12:44:32.324Z,1.02
2022-11-04T12:47:14.122Z,0.90
2022-11-04T12:50:00.125Z,1.23
2022-11-04T12:52:45.889Z,1.45
2022-11-04T12:55:30.741Z,0.73
2022-11-04T12:58:07.089Z,0.70
2022-11-04T13:00:40.281Z,0.60
2022-11-04T13:03:14.952Z,0.63
2022-11-04T13:05:48.487Z,0.90
2022-11-04T13:08:23.659Z,0.77
2022-11-04T13:10:56.579Z,1.00
2022-11-04T13:13:29.832Z,1.02
2022-11-04T13:16:03.368Z,1.20
2022-11-04T13:18:36.069Z,1.35
2022-11-04T13:21:07.579Z,1.80
2022-11-04T13:23:40.480Z,1.00
2022-11-04T13:26:14.167Z,1.10
2022-11-04T13:28:44.862Z,1.00
2022-11-04T13:31:21.531Z,1.13
2022-11-04T13:33:55.734Z,2.95
2022-11-04T13:36:31.972Z,3.70
2022-11-04T13:39:03.370Z,1.80
2022-11-04T13:41:52.455Z,1.67
2022-11-04T13:44:25.773Z,1.67
2022-11-04T13:46:58.827Z,1.40
2022-11-04T13:49:32.463Z,1.73
2022-11-04T13:52:08.171Z,1.52
2022-11-04T13:54:39.627Z,1.08
2022-11-04T13:57:10.415Z,1.30
2022-11-04T13:59:39.029Z,1.38
2022-11-04T14:02:37.832Z,1.50
2022-11-04T14:05:40.001Z,1.30
2022-11-04T14:08:11.678Z,1.13
2022-11-04T14:10:45.210Z,2.90
2022-11-04T14:13:47.980Z,2.00
2022-11-04T14:16:43.836Z,1.83
2022-11-04T14:19:57.890Z,1.30
2022-11-04T14:22:38.873Z,1.30
2022-11-04T14:25:28.987Z,1.08
2022-11-04T14:27:58.917Z,1.60
2022-11-04T14:30:34.565Z,1.05
2022-11-04T14:33:05.487Z,1.27
2022-11-04T14:35:36.081Z,1.65
2022-11-04T14:38:19.895Z,1.45
2022-11-04T14:40:51.243Z,1.55
2022-11-04T14:43:33.635Z,1.05
2022-11-04T14:46:03.144Z,1.23
2022-11-04T14:48:32.307Z,0.75
2022-11-04T14:51:01.995Z,0.93
2022-11-04T14:53:33.306Z,0.90
2022-11-04T14:56:07.162Z,0.90
2022-11-04T14:58:37.205Z,1.10
2022-11-04T15:01:07.623Z,2.10
2022-11-04T15:04:10.903Z,3.38
2022-11-04T15:06:40.716Z,1.40
2022-11-04T15:09:23.241Z,3.00
2022-11-04T15:12:09.093Z,2.25
2022-11-04T15:14:38.098Z,2.20
2022-11-04T15:17:06.220Z,1.52
2022-11-04T15:19:36.428Z,2.13
2022-11-04T15:22:07.523Z,1.40
2022-11-04T15:24:36.488Z,1.73
2022-11-04T15:27:07.020Z,1.40
2022-11-04T15:29:35.150Z,1.48
2022-11-04T15:32:05.841Z,1.80
2022-11-04T15:34:35.182Z,1.88
2022-11-04T15:37:06.361Z,1.60
2022-11-04T15:39:38.358Z,1.50
2022-11-04T15:42:29.285Z,1.40
2022-11-04T15:44:57.679Z,1.55
2022-11-04T15:47:28.370Z,1.90
2022-11-04T15:50:05.051Z,2.10
2022-11-04T15:52:34.486Z,1.90
2022-11-04T15:55:03.424Z,2.30
2022-11-04T15:57:34.434Z,2.65
2022-11-04T16:00:06.112Z,2.17
2022-11-04T16:02:46.874Z,1.88
2022-11-04T16:05:24.453Z,1.65
2022-11-04T16:07:56.025Z,1.55
2022-11-04T16:10:30.254Z,1.70
2022-11-04T16:12:59.759Z,1.60
2022-11-04T16:15:36.664Z,2.10
2022-11-04T16:18:06.462Z,1.70
2022-11-04T16:20:35.923Z,2.08
2022-11-04T16:23:05.569Z,2.20
2022-11-04T16:25:36.294Z,2.40
2022-11-04T16:28:04.778Z,1.83
2022-11-04T16:30:32.830Z,2.13
2022-11-04T16:33:11.230Z,1.60
2022-11-04T16:35:42.779Z,2.42
2022-11-04T16:38:12.461Z,2.08
2022-11-04T16:40:40.900Z,2.25
2022-11-04T16:43:10.879Z,2.47
2022-11-04T16:45:40.280Z,2.30
2022-11-04T16:48:08.764Z,2.63
2022-11-04T16:50:36.826Z,3.80
2022-11-04T16:53:04.972Z,3.90
2022-11-04T16:55:34.431Z,3.90
2022-11-04T16:58:04.603Z,4.57
2022-11-04T17:00:33.769Z,5.40
2022-11-04T17:03:02.457Z,4.75
2022-11-04T17:05:30.492Z,4.25
2022-11-04T17:08:04.715Z,4.65
2022-11-04T17:10:36.787Z,4.65
2022-11-04T17:13:04.856Z,4.70
2022-11-04T17:15:33.362Z,4.60
2022-11-04T17:18:01.385Z,4.80
2022-11-04T17:20:30.060Z,5.40
2022-11-04T17:22:58.207Z,5.82
2022-11-04T17:25:28.655Z,5.28
2022-11-04T17:27:58.057Z,5.95
2022-11-04T17:30:26.393Z,5.35
2022-11-04T17:32:54.398Z,4.18
2022-11-04T17:35:22.488Z,5.13
2022-11-04T17:37:53.712Z,2.92
2022-11-04T17:40:24.339Z,3.38
2022-11-04T17:43:12.169Z,3.53
2022-11-04T17:45:42.823Z,5.03
2022-11-04T17:48:14.015Z,4.90
2022-11-04T17:50:42.398Z,4.90
2022-11-04T17:53:10.922Z,4.93
2022-11-04T17:55:40.934Z,4.68
2022-11-04T17:58:09.621Z,4.40
2022-11-04T18:00:37.793Z,4.53
2022-11-04T18:03:08.785Z,4.45
2022-11-04T18:05:37.322Z,5.30
2022-11-04T18:08:05.927Z,6.15
2022-11-04T18:10:33.942Z,6.95
2022-11-04T18:13:01.999Z,6.90
2022-11-04T18:15:30.261Z,5.85
2022-11-04T18:17:58.727Z,5.78
2022-11-04T18:20:28.197Z,4.88
2022-11-04T18:22:56.291Z,5.03
2022-11-04T18:25:24.750Z,5.15
2022-11-04T18:28:14.462Z,4.28
2022-11-04T18:30:43.050Z,4.82
2022-11-04T18:33:11.482Z,5.03
2022-11-04T18:35:41.079Z,6.75
2022-11-04T18:38:09.215Z,6.93
2022-11-04T18:40:37.606Z,7.50
2022-11-04T18:43:08.895Z,6.50
2022-11-04T18:45:37.739Z,7.65
2022-11-04T18:48:07.207Z,7.65
2022-11-04T18:50:36.845Z,7.03
2022-11-04T18:53:06.231Z,7.05
2022-11-04T18:55:35.014Z,7.22
2022-11-04T18:58:03.222Z,6.55
2022-11-04T19:00:31.645Z,5.65
2022-11-04T19:02:59.687Z,5.47
2022-11-04T19:05:27.776Z,5.25
2022-11-04T19:07:55.777Z,4.53
2022-11-04T19:10:25.126Z,3.95
2022-11-04T19:13:09.743Z,4.22
2022-11-04T19:15:37.737Z,4.45
2022-11-04T19:18:05.853Z,3.72
2022-11-04T19:20:35.867Z,4.15
2022-11-04T19:23:04.101Z,3.50
2022-11-04T19:25:33.464Z,4.38
2022-11-04T19:28:31.322Z,7.70
2022-11-04T19:30:58.918Z,10.10
2022-11-04T19:33:27.043Z,8.20
2022-11-04T19:35:55.996Z,7.72
2022-11-04T19:38:24.946Z,8.70
2022-11-04T19:40:55.516Z,6.50
2022-11-04T19:43:23.149Z,5.20
2022-11-04T19:45:51.441Z,6.82
2022-11-04T19:48:20.404Z,6.97
2022-11-04T19:50:49.681Z,6.10
2022-11-04T19:53:18.360Z,5.85
2022-11-04T19:55:51.229Z,5.90
2022-11-04T19:58:23.067Z,5.72
2022-11-04T20:00:51.170Z,5.00
2022-11-04T20:03:19.244Z,5.57
2022-11-04T20:05:47.235Z,4.88
2022-11-04T20:08:15.235Z,5.53
2022-11-04T20:10:44.327Z,6.35
2022-11-04T20:13:34.130Z,5.78
2022-11-04T20:16:11.907Z,5.30
2022-11-04T20:18:39.998Z,5.97
2022-11-04T20:21:08.160Z,6.07
2022-11-04T20:23:36.206Z,6.57
2022-11-04T20:26:10.535Z,6.38
2022-11-04T20:28:39.242Z,8.63
2022-11-04T20:31:13.599Z,7.97
2022-11-04T20:33:41.991Z,7.95
2022-11-04T20:36:10.806Z,13.55
2022-11-04T20:38:39.039Z,12.90
2022-11-04T20:41:09.333Z,16.42
2022-11-04T20:43:38.990Z,14.82
2022-11-04T20:46:09.505Z,16.10
2022-11-04T20:48:40.418Z,18.48
2022-11-04T20:51:09.466Z,20.45
2022-11-04T20:53:38.026Z,19.90
2022-11-04T20:56:08.202Z,18.00
2022-11-04T20:58:37.598Z,17.58
2022-11-04T21:01:08.268Z,26.25
2022-11-04T21:03:36.361Z,18.15
2022-11-04T21:06:06.004Z,14.50
2022-11-04T21:08:35.414Z,14.80
2022-11-04T21:11:08.016Z,14.65
2022-11-04T21:13:36.047Z,12.20
2022-11-04T21:16:04.146Z,16.05
2022-11-04T21:18:32.342Z,17.42
2022-11-04T21:21:05.801Z,15.35
2022-11-04T21:23:33.863Z,14.10
2022-11-04T21:26:07.257Z,12.88
2022-11-04T21:28:35.385Z,14.13
2022-11-04T21:31:06.388Z,14.45
2022-11-04T21:33:34.604Z,14.45
2022-11-04T21:36:05.032Z,11.73
2022-11-04T21:38:33.725Z,11.50
2022-11-04T21:41:02.541Z,11.02
2022-11-04T21:43:30.934Z,10.95
2022-11-04T21:46:04.018Z,11.63
2022-11-04T21:48:33.051Z,13.15
2022-11-04T21:51:02.311Z,13.60
2022-11-04T21:53:32.210Z,12.00
2022-11-04T21:56:05.446Z,13.52
2022-11-04T21:58:33.526Z,15.18
2022-11-04T22:01:01.573Z,16.67
2022-11-04T22:03:29.738Z,15.05
2022-11-04T22:05:59.479Z,12.95
2022-11-04T22:08:28.384Z,16.88
2022-11-04T22:10:58.187Z,15.52
2022-11-04T22:13:26.262Z,14.27
2022-11-04T22:16:00.604Z,13.70
2022-11-04T22:18:29.921Z,16.17
2022-11-04T22:20:59.023Z,14.75
2022-11-04T22:23:27.083Z,14.77
2022-11-04T22:26:01.771Z,14.32
2022-11-04T22:28:30.197Z,13.75
2022-11-04T22:30:58.642Z,17.45
2022-11-04T22:33:31.497Z,14.93
2022-11-04T22:36:00.102Z,14.13
2022-11-04T22:38:28.235Z,14.07
2022-11-04T22:40:57.089Z,14.85
2022-11-04T22:43:26.987Z,13.07
2022-11-04T22:45:56.546Z,14.32
2022-11-04T22:48:25.125Z,12.32
2022-11-04T22:50:56.277Z,16.85
2022-11-04T22:53:24.600Z,13.98
2022-11-04T22:55:53.588Z,14.27
2022-11-04T22:58:21.608Z,15.48
2022-11-04T23:00:57.298Z,13.23
2022-11-04T23:03:26.465Z,11.98
2022-11-04T23:05:56.377Z,12.82
2022-11-04T23:08:24.947Z,12.70
2022-11-04T23:11:14.502Z,12.15
2022-11-04T23:14:06.841Z,11.73
2022-11-04T23:16:53.926Z,13.45
2022-11-04T23:19:24.724Z,13.35
2022-11-04T23:22:13.617Z,13.05
2022-11-04T23:24:58.978Z,13.40
2022-11-04T23:27:44.873Z,13.38
2022-11-04T23:30:25.362Z,12.25
2022-11-04T23:32:56.583Z,12.13
2022-11-04T23:35:52.319Z,12.07
2022-11-04T23:38:20.770Z,11.27
2022-11-04T23:41:04.136Z,12.55
2022-11-04T23:43:32.563Z,13.07
2022-11-04T23:46:18.038Z,14.55
2022-11-04T23:49:04.964Z,15.70
2022-11-04T23:51:50.536Z,15.63
2022-11-04T23:54:32.555Z,23.15
2022-11-04T23:57:17.964Z,29.17
